Terminal Aerodrome Forecast
Issued by NWS

Home | Current Version | Previous Version | Text Only | Print | Product List | Glossary On
Versions: 1 2 3 4 5 6 7 8 9 10 11 12 13 14 15 16 17 18 19 20 21 22 23 24 25 26 27 28 29 30 31 32 33 34
000
FTUS45 KPSR 240522
TAFIWA
TAF
KIWA 240522Z 2406/2506 28012KT P6SM VCSH SCT030 BKN070
      TEMPO 2406/2408 -SHRA BKN030 OVC070
     FM240800 28010KT P6SM VCSH FEW040 BKN070
     FM241200 15008KT P6SM SCT040
     FM242100 25008KT P6SM BKN060
     FM250400 12005KT P6SM FEW060 SCT180
      AMD LTD TO CLD VIS AND WIND TIL 241300=

USA.gov is the U.S. government's official web portal to all federal, state and local government web resources and services.